Cal Pinellet - temp/vent/humi/press dades any
09/06/2024 14:08 TEMP RatxaVent HUMITAT PRESSIÓ
2024 min MAX min MAX min MAX min MAX
Gener -5.6 22.1 0 56 12 79 1001 1043
Febrer -1.4 22.3 0 55 17 79 982 1040
Març -2.4 25.4 0 56 13 78 988 1024
Abril -1.9 30.6 0 56 4 78 999 1031
Maig 1.5 29.7 0 72 17 79 1002 1020
Juny 8.2 33.1 0 45 9 78 1002 1019
Juliol 0.0 0.0 0 0 0 0 0 0
Agost 0.0 0.0 0 0 0 0 0 0
Setem. 0.0 0.0 0 0 0 0 0 0
Octubre 0.0 0.0 0 0 0 0 0 0
Novemb. 0.0 0.0 0 0 0 0 0 0
Desemb. 0.0 0.0 0 0 0 0 0 0
data.valor.extrem 09/01/24 06/06/24 24/05/24 10/02/24 23/01/24
mín màx màx mín màx
valors extrems -5.6 33.1 72.4 982 1043
  TEMP   RatxaVent HUMITAT PRESSIÓ Tª mitja
data min MAX min MAX min MAX min MAX mitja
16/06/24 11.7 26.3 0 45.0 32 68 1009 1014 19.8
15/06/24 13.2 27.2 0 38.5 22 62 1008 1014 19.3
14/06/24 10.1 30.7 0 37.1 12 71 1008 1017 20.5
13/06/24 8.2 25.3 0 28.8 15 78 1015 1019 17.4
12/06/24 12.1 20.0 0 38.5 50 77 1014 1019 15.1
11/06/24 13.7 15.9 0 24.1 65 77 1011 1015 14.8
10/06/24 14.4 22.7 0 30.6 41 73 1008 1012 17.6
09/06/24 16.4 24.6 0 35.3 45 70 1002 1008 19.8
08/06/24 15.1 30.1 0 33.8 18 64 1003 1015 22.6
07/06/24 12.7 32.8 0 37.1 9 59 1013 1017 23.2
06/06/24 12.4 33.1 0 41.8 15 66 1013 1016 22.8
05/06/24 10.5 29.8 0 38.5 29 70 1012 1016 20.6
04/06/24 11.6 26.4 0 32.0 35 64 1010 1015 19.5
03/06/24 9.9 27.4 0 33.8 18 68 1011 1018 18.7
02/06/24 9.3 24.2 0 28.8 24 72 1014 1017 17.1
01/06/24 11.7 23.7 0 25.9 24 64 1012 1018 16.9
31/05/24 13.4 24.8 0 45.0 19 60 1009 1013 18.5
30/05/24 12.8 28.8 0 37.1 30 67 1005 1013 20.9
29/05/24 11.8 29.7 0 41.8 20 72 1011 1017 20.2
28/05/24 14.7 27.1 0 25.9 17 62 1015 1018 19.7
27/05/24 12.4 25.4 0 22.7 37 78 1014 1018 18.9
26/05/24 9.6 26.9 0 32.0 29 75 1013 1017 18.7
25/05/24 8.3 24.9 0 38.5 33 79 1013 1017 16.0
24/05/24 9.9 20.8 0 72.4 48 78 1014 1018 14.8
23/05/24 9.0 22.2 0 30.6 30 74 1014 1018 15.2
22/05/24 9.8 22.2 0 32.0 21 64 1013 1015 16.2
21/05/24 7.9 22.3 0 37.1 23 66 1009 1014 15.8
20/05/24 10.8 21.1 0 32.0 27 76 1007 1009 16.2
19/05/24 8.2 22.8 0 27.4 25 76 1006 1012 15.4
18/05/24 10.1 20.6 0 28.8 42 76 1008 1012 15.2
17/05/24 6.8 21.1 0 28.8 40 68 1006 1010 14.2
16/05/24 6.9 18.6 0 38.5 36 65 1005 1009 12.9
15/05/24 9.1 19.6 0 25.9 23 68 1004 1007 13.9
14/05/24 10.9 20.0 0 22.7 33 75 1002 1007 14.7
13/05/24 8.9 25.9 0 38.5 21 64 1007 1015 17.7
12/05/24 9.0 25.9 0 27.4 25 61 1012 1017 17.7
11/05/24 6.4 26.1 0 40.3 20 63 1014 1018 17.1
10/05/24 6.3 25.7 0 38.5 20 67 1014 1019 16.8
09/05/24 5.2 25.6 0 32.0 18 65 1015 1020 15.6
08/05/24 5.4 24.1 0 33.8 24 72 1016 1020 14.6
07/05/24 5.6 19.9 0 38.5 29 77 1014 1019 13.1
06/05/24 11.8 20.8 0 38.5 39 71 1007 1014 15.8
05/05/24 9.3 25.2 0 43.6 24 65 1008 1015 17.2
04/05/24 6.3 23.6 0 32.0 30 62 1012 1017 15.1
03/05/24 1.5 18.7 0 37.1 26 68 1014 1018 11.5
02/05/24 4.3 17.4 0 48.2 21 66 1004 1016 10.7
01/05/24 7.2 16.6 0 37.1 31 78 1002 1009 12.1
30/04/24 10.7 17.2 0 17.6 55 77 1008 1013 12.9
29/04/24 10.5 13.2 0 30.6 67 78 1011 1014 11.5
28/04/24 9.7 14.1 0 22.7 59 74 1006 1014 11.9
27/04/24 11.5 17.8 0 43.6 43 67 1001 1006 14.1
26/04/24 4.3 18.7 0 35.3 26 70 1003 1007 12.6
25/04/24 6.2 15.2 0 24.1 42 60 1005 1013 10.4
24/04/24 -1.9 17.8 0 35.3 17 59 1010 1015 8.5
23/04/24 0.8 14.1 0 46.8 6 77 1010 1016 8.0
22/04/24 6.3 15.4 0 33.8 25 72 1011 1016 10.7
21/04/24 5.5 20.8 0 35.3 28 71 1010 1016 12.0
20/04/24 1.9 22.3 0 38.5 23 62 1012 1017 12.1
19/04/24 -0.8 19.9 0 25.9 11 55 1016 1023 10.5
18/04/24 3.7 18.3 0 56.2 6 66 1011 1020 11.2
17/04/24 2.2 19.2 0 27.4 25 65 1010 1014 11.2
16/04/24 6.9 21.6 0 35.3 28 59 1008 1016 14.1
15/04/24 7.3 25.7 0 30.6 15 60 1014 1021 16.9
14/04/24 6.9 29.6 0 25.9 7 62 1018 1025 18.3
13/04/24 6.3 30.6 0 28.8 4 60 1023 1029 17.5
12/04/24 3.8 27.8 0 20.9 7 63 1026 1031 15.3
11/04/24 1.7 23.7 0 25.9 15 63 1025 1030 12.7
10/04/24 1.4 19.1 0 30.6 19 70 1022 1027 10.3
09/04/24 6.3 18.1 0 43.6 6 64 1009 1026 11.7
08/04/24 12.0 25.4 0 38.5 20 58 1005 1013 17.7
07/04/24 12.4 23.0 0 28.8 23 57 1012 1019 17.5
06/04/24 4.6 25.9 0 33.8 13 62 1016 1020 15.4
05/04/24 6.4 23.2 0 25.9 21 64 1017 1020 14.3
04/04/24 3.9 23.4 0 30.6 17 70 1016 1020 13.6
03/04/24 4.1 19.9 0 33.8 27 64 1014 1019 13.0
02/04/24 1.8 17.4 0 28.8 20 67 1015 1020 10.0
01/04/24 1.7 14.8 0 50.0 31 78 999 1015 9.2
31/03/24 5.1 13.3 0 41.8 54 78 994 999 8.9
30/03/24 8.0 16.3 0 27.4 31 67 995 996 11.2
29/03/24 8.6 20.7 0 35.3 30 77 994 1001 13.9
28/03/24 8.3 18.3 0 33.8 28 70 993 1002 12.7
27/03/24 -0.1 12.9 0 35.3 39 73 990 996 7.4
26/03/24 5.5 11.4 0 32.0 49 78 988 994 9.3
25/03/24 8.3 10.5 0 17.6 60 75 994 1011 9.2
24/03/24 5.1 17.1 0 27.4 33 78 1011 1016 10.9
23/03/24 7.3 20.6 0 30.6 41 65 1015 1018 13.7
22/03/24 7.7 25.4 0 27.4 17 67 1015 1022 15.9
21/03/24 5.1 24.7 0 20.9 30 70 1021 1024 14.1
20/03/24 6.1 20.8 0 22.7 35 68 1015 1022 12.8
19/03/24 6.6 23.8 0 32.0 32 72 1012 1017 14.2
18/03/24 6.9 22.8 0 27.4 30 74 1014 1018 14.8
17/03/24 7.1 21.9 0 27.4 35 69 1017 1023 14.6
16/03/24 4.9 20.9 0 24.1 35 75 1021 1024 12.9
15/03/24 6.9 20.6 0 25.9 34 67 1016 1021 13.6
14/03/24 1.4 20.8 0 27.4 29 75 1014 1017 11.0
13/03/24 0.4 19.6 0 19.4 27 72 1014 1021 9.7
12/03/24 0.9 15.5 0 20.9 31 67 1016 1022 8.2
11/03/24 -0.2 15.1 0 37.1 34 76 1004 1017 8.0
10/03/24 1.9 11.1 0 32.0 47 77 994 1004 6.7
09/03/24 1.4 8.2 0 16.2 67 77 992 1004 5.2
08/03/24 1.7 11.9 0 45.0 38 68 1001 1010 6.7
07/03/24 0.2 15.2 0 27.4 32 65 1010 1020 6.8
06/03/24 -2.4 15.1 0 24.1 13 64 1018 1023 6.3
05/03/24 -0.7 14.8 0 32.0 27 67 1015 1021 7.2
04/03/24 -1.8 12.6 0 40.3 17 57 1008 1015 7.1
03/03/24 3.3 12.2 0 56.2 24 73 993 1008 7.7
02/03/24 0.2 12.4 0 32.0 39 68 996 1009 6.8
01/03/24 3.8 13.8 0 46.8 28 62 1008 1011 8.3
29/02/24 -1.4 14.6 0 24.1 32 59 1008 1016 7.1
28/02/24 3.4 18.6 0 51.5 17 53 1009 1016 10.2
27/02/24 4.3 15.5 0 51.5 21 64 1001 1009 9.1
26/02/24 4.9 13.5 0 32.0 37 78 996 1002 8.6
25/02/24 0.3 10.6 0 33.8 47 69 1000 1013 6.0
24/02/24 1.1 11.1 0 37.1 35 66 1004 1013 5.5
23/02/24 3.5 11.7 0 50.0 25 60 1001 1006 7.5
22/02/24 4.6 17.2 0 45.0 34 61 1002 1020 11.0
21/02/24 2.6 16.3 0 19.4 28 67 1019 1027 8.9
20/02/24 1.6 16.9 0 19.4 33 68 1024 1029 8.5
19/02/24 5.6 18.6 0 20.9 30 74 1027 1031 10.8
18/02/24 1.3 14.7 0 24.1 48 77 1031 1033 8.0
17/02/24 4.9 12.9 0 28.8 56 77 1023 1032 9.2
16/02/24 5.6 12.6 0 19.4 48 70 1015 1023 9.0
15/02/24 6.2 18.5 0 17.6 17 64 1016 1022 11.3
14/02/24 1.0 20.2 0 16.2 22 71 1022 1026 9.6
13/02/24 1.1 16.1 0 22.7 34 67 1015 1024 7.8
12/02/24 -0.3 15.3 0 51.5 40 67 1005 1015 7.5
11/02/24 3.1 13.1 0 40.3 31 60 998 1008 6.9
10/02/24 4.7 14.6 0 54.7 21 78 982 998 9.3
09/02/24 7.2 13.1 0 22.7 51 76 986 1003 9.2
08/02/24 0.4 15.4 0 25.9 44 75 1002 1017 7.5
07/02/24 -0.7 13.3 0 22.7 42 79 1016 1021 5.7
06/02/24 1.3 15.1 0 16.2 34 67 1020 1026 7.0
05/02/24 0.7 20.1 0 22.7 25 64 1025 1030 8.4
04/02/24 0.2 22.3 0 13.0 18 73 1028 1031 8.5
03/02/24 -0.4 17.3 0 17.6 37 77 1030 1033 6.8
02/02/24 0.6 10.8 0 19.4 64 77 1031 1033 5.3
01/02/24 -0.9 12.8 0 19.4 58 77 1031 1040 5.6
31/01/24 0.2 13.8 0 13.0 51 79 1038 1041 5.1
30/01/24 2.9 14.7 0 13.0 51 75 1036 1039 8.7
29/01/24 1.6 11.9 0 16.2 63 79 1036 1038 6.8
28/01/24 0.9 16.7 0 19.4 44 73 1033 1037 7.7
27/01/24 2.0 20.2 0 20.9 30 68 1033 1037 9.1
26/01/24 1.7 22.1 0 14.4 29 76 1035 1037 9.5
25/01/24 1.6 19.3 0 14.4 39 78 1034 1040 8.3
24/01/24 1.8 19.2 0 14.4 42 77 1039 1043 8.3
23/01/24 -0.8 14.7 0 14.4 49 77 1039 1043 5.3
22/01/24 -2.7 9.8 0 17.6 55 75 1036 1040 2.6
21/01/24 -3.2 11.4 0 13.0 48 75 1036 1040 1.8
20/01/24 -0.8 9.6 0 20.9 45 77 1018 1036 4.5
19/01/24 5.8 8.2 0 24.1 60 77 1012 1018 6.7
18/01/24 6.8 16.1 0 56.2 42 71 1006 1012 12.4
17/01/24 8.3 13.9 0 35.3 59 77 1001 1012 10.6
16/01/24 4.0 14.4 0 16.2 60 77 1012 1016 8.3
15/01/24 0.3 12.4 0 24.1 64 78 1012 1017 5.7
14/01/24 -0.8 10.3 0 25.9 51 75 1017 1025 3.6
13/01/24 -1.3 9.4 0 20.9 52 78 1025 1032 2.4
12/01/24 1.3 5.2 0 27.4 62 70 1029 1032 2.7
11/01/24 2.8 6.4 0 25.9 63 78 1022 1029 3.6
10/01/24 -0.2 4.0 0 7.9 54 77 1022 1026 2.2
09/01/24 -5.6 10.7 0 13.0 23 61 1024 1027 0.4
08/01/24 -4.3 9.1 0 28.8 19 57 1017 1024 2.6
07/01/24 1.7 10.6 0 54.7 12 54 1014 1017 6.1
06/01/24 0.1 11.7 0 53.3 18 75 1009 1015 6.3
05/01/24 5.4 9.6 0 16.2 63 77 1005 1013 7.1
04/01/24 3.1 13.0 0 17.6 51 76 1013 1023 6.9
03/01/24 2.2 15.3 0 28.8 49 68 1017 1021 9.3
02/01/24 -2.2 10.7 0 27.4 38 77 1021 1026 3.8
01/01/24 -0.1 12.4 0 16.2 46 73 1022 1026 4.5